Time;durP1;ratioP1;P1;durP2;ratioP2;P2;SDS_P1;SDS_P2;PMS_P1;PMS_P2;Temp;Humidity;BMP_temperature;BMP_pressure;BME280_temperature;BME280_humidity;BME280_pressure;Samples;Min_cycle;Max_cycle;Signal;HPM_P1;HPM_P2
2024/02/18 07:27:00;;;;;;;;;;;;;;;;;;5124785;23;19930;-88
2024/02/18 07:29:25;;;;;;;;;;;;;;;;;;4975022;28;20281;-89
2024/02/18 10:58:31;;;;;;;23.13;18.67;;;;;;;;;;4972210;28;20456;-93
2024/02/18 11:01:00;;;;;;;22.05;15.73;;;;;;;;;;4959797;28;20047;-92
2024/02/18 11:03:45;;;;;;;23.33;16.42;;;;;;;;;;4961828;28;20031;-91
2024/02/18 11:06:11;;;;;;;26.27;19.92;;;;;;;;;;4995643;28;20026;-90
2024/02/18 11:08:40;;;;;;;27.42;18.17;;;;;;;;;;4979031;28;20030;-92
2024/02/18 11:11:08;;;;;;;26.80;19.65;;;;;;;;;;4979398;28;20583;-94
2024/02/18 11:13:35;;;;;;;26.77;19.08;;;;;;;;;;4977952;28;20034;-89
2024/02/18 11:16:01;;;;;;;31.33;18.33;;;;;;;;;;4977525;28;20018;-91
2024/02/18 11:18:28;;;;;;;27.40;20.70;;;;;;;;;;4977501;28;20392;-92
2024/02/18 11:20:54;;;;;;;31.15;22.38;;;;;;;;;;4995075;28;20480;-91
2024/02/18 11:23:20;;;;;;;28.42;20.23;;;;;;;;;;4977604;28;20037;-90
2024/02/18 11:25:46;;;;;;;26.05;17.85;;;;;;;;;;4994878;28;20057;-91
2024/02/18 11:28:12;;;;;;;35.33;19.13;;;;;;;;;;4994399;28;20027;-92
2024/02/18 11:30:38;;;;;;;58.13;22.52;;;;;;;;;;4977677;28;20018;-92
2024/02/18 11:33:05;;;;;;;31.80;20.92;;;;;;;;;;4994989;28;20488;-93
2024/02/18 11:35:30;;;;;;;22.98;18.60;;;;;;;;;;4977119;28;20038;-91
2024/02/18 11:37:57;;;;;;;26.55;20.33;;;;;;;;;;4977062;28;20041;-91
2024/02/18 11:40:23;;;;;;;28.30;20.85;;;;;;;;;;4977194;28;20120;-91
2024/02/18 11:42:48;;;;;;;24.58;18.80;;;;;;;;;;4977653;28;20109;-91
2024/02/18 11:45:23;;;;;;;25.67;20.00;;;;;;;;;;4977033;28;20046;-92
2024/02/18 11:47:56;;;;;;;24.83;18.30;;;;;;;;;;4977501;28;20022;-92
2024/02/18 11:50:22;;;;;;;25.00;19.17;;;;;;;;;;4977355;28;20107;-87
2024/02/18 11:52:49;;;;;;;26.55;18.70;;;;;;;;;;4994491;28;20022;-88
2024/02/18 11:55:20;;;;;;;23.20;16.45;;;;;;;;;;4976840;28;20030;-89
2024/02/18 11:57:46;;;;;;;26.60;16.77;;;;;;;;;;4994331;28;20037;-89
2024/02/18 12:00:13;;;;;;;26.58;17.33;;;;;;;;;;4994335;28;20050;-91
2024/02/18 12:02:40;;;;;;;25.98;18.27;;;;;;;;;;4976847;28;20027;-91
2024/02/18 12:05:06;;;;;;;29.02;20.13;;;;;;;;;;4994624;28;20073;-91
2024/02/18 12:07:36;;;;;;;28.45;18.90;;;;;;;;;;4977110;28;20392;-92
2024/02/18 12:10:02;;;;;;;28.52;18.42;;;;;;;;;;4977146;28;20401;-91
2024/02/18 12:12:27;;;;;;;22.90;17.67;;;;;;;;;;4975946;28;20105;-92
2024/02/18 12:14:56;;;;;;;24.58;15.80;;;;;;;;;;4984418;28;20117;-90
2024/02/18 12:17:25;;;;;;;24.57;19.07;;;;;;;;;;4970831;28;20438;-92
2024/02/18 12:19:51;;;;;;;;;;;;;;;;;;4976320;28;20038;-93
2024/02/18 12:22:20;;;;;;;;;;;;;;;;;;4995000;28;20288;-93
2024/02/18 12:24:48;;;;;;;26.45;18.80;;;;;;;;;;4977558;28;19967;-94
2024/02/18 12:27:14;;;;;;;25.30;18.10;;;;;;;;;;4992464;28;20023;-94
2024/02/18 12:29:39;;;;;;;27.85;17.67;;;;;;;;;;4991542;28;20030;-94
2024/02/18 12:32:06;;;;;;;26.02;17.33;;;;;;;;;;4992656;28;20022;-93
2024/02/18 12:34:31;;;;;;;24.88;17.35;;;;;;;;;;4993684;28;20018;-93
2024/02/18 12:36:57;;;;;;;28.58;17.15;;;;;;;;;;4991295;28;20027;-93
2024/02/18 12:39:23;;;;;;;22.20;15.40;;;;;;;;;;4993276;28;20113;-92
2024/02/18 12:41:48;;;;;;;21.55;14.30;;;;;;;;;;4991941;28;20114;-94
2024/02/18 12:44:14;;;;;;;21.25;13.27;;;;;;;;;;4972274;28;20026;-92
2024/02/18 12:46:40;;;;;;;25.00;16.40;;;;;;;;;;4994317;28;20023;-92
2024/02/18 12:49:05;;;;;;;29.15;18.13;;;;;;;;;;4995488;28;20068;-93
2024/02/18 12:51:33;;;;;;;23.83;14.70;;;;;;;;;;4994832;28;20022;-93
2024/02/18 12:53:58;;;;;;;24.67;16.05;;;;;;;;;;4996419;28;20033;-93
2024/02/18 12:56:24;;;;;;;26.65;17.42;;;;;;;;;;4977656;28;20027;-94
2024/02/18 12:58:51;;;;;;;29.48;18.05;;;;;;;;;;4990805;28;20050;-93
2024/02/18 13:01:16;;;;;;;29.45;18.42;;;;;;;;;;4954446;28;20561;-93
2024/02/18 13:03:46;;;;;;;26.48;15.00;;;;;;;;;;4978259;28;20023;-91
2024/02/18 13:06:16;;;;;;;27.40;16.92;;;;;;;;;;4978423;28;20113;-95
2024/02/18 13:08:43;;;;;;;32.20;18.10;;;;;;;;;;4975146;28;20031;-92
2024/02/18 13:11:14;;;;;;;33.45;17.38;;;;;;;;;;4951722;28;20031;-93
2024/02/18 13:13:43;;;;;;;27.50;16.65;;;;;;;;;;4979984;28;20034;-92
2024/02/18 13:16:09;;;;;;;32.90;21.15;;;;;;;;;;4960552;28;20405;-94
2024/02/18 13:18:41;;;;;;;33.35;20.65;;;;;;;;;;4972510;28;20031;-92
2024/02/18 13:21:07;;;;;;;36.25;21.33;;;;;;;;;;4963689;28;20037;-91
2024/02/18 13:23:37;;;;;;;35.92;20.92;;;;;;;;;;4976567;28;20031;-94
2024/02/18 13:26:03;;;;;;;33.92;20.75;;;;;;;;;;4984166;28;20461;-94
2024/02/18 13:28:29;;;;;;;33.45;18.83;;;;;;;;;;4946353;28;20114;-93
2024/02/18 13:30:54;;;;;;;28.35;17.98;;;;;;;;;;4967854;28;20058;-94
2024/02/18 13:33:20;;;;;;;29.48;15.65;;;;;;;;;;4994468;28;20027;-95
2024/02/18 13:35:46;;;;;;;24.45;15.80;;;;;;;;;;4993753;28;20018;-95
2024/02/18 13:38:11;;;;;;;27.92;16.30;;;;;;;;;;4983506;28;20023;-93
2024/02/18 13:40:37;;;;;;;31.05;15.90;;;;;;;;;;4972343;28;20027;-93
2024/02/18 13:43:03;;;;;;;26.45;16.27;;;;;;;;;;4963145;28;20387;-93
2024/02/18 13:45:28;;;;;;;33.90;18.85;;;;;;;;;;4963866;28;20099;-94
2024/02/18 13:47:55;;;;;;;37.47;20.55;;;;;;;;;;4977610;28;20033;-93
2024/02/18 13:50:21;;;;;;;45.20;22.50;;;;;;;;;;4962081;28;20033;-96
2024/02/18 13:52:46;;;;;;;43.03;20.63;;;;;;;;;;4959412;28;20385;-93
2024/02/18 13:55:12;;;;;;;43.95;23.50;;;;;;;;;;4976124;28;20031;-92
2024/02/18 13:57:37;;;;;;;41.63;23.90;;;;;;;;;;4975869;28;20027;-95
2024/02/18 14:00:03;;;;;;;46.78;24.33;;;;;;;;;;4975638;28;20051;-93
2024/02/18 14:02:29;;;;;;;44.97;24.30;;;;;;;;;;4976698;28;20035;-93
2024/02/18 14:04:54;;;;;;;51.30;28.75;;;;;;;;;;4957751;28;20462;-93
2024/02/18 14:07:20;;;;;;;50.90;28.13;;;;;;;;;;4972733;28;20049;-94
2024/02/18 14:09:49;;;;;;;50.40;28.17;;;;;;;;;;4961010;28;20030;-94
2024/02/18 14:12:15;;;;;;;52.67;26.77;;;;;;;;;;4977569;28;20026;-92
2024/02/18 14:14:42;;;;;;;43.03;22.30;;;;;;;;;;4988028;28;20110;-92
2024/02/18 14:17:08;;;;;;;47.28;27.90;;;;;;;;;;4971861;28;20038;-92
2024/02/18 14:19:33;;;;;;;45.33;25.42;;;;;;;;;;4960555;28;20035;-96
2024/02/18 14:21:59;;;;;;;50.15;24.98;;;;;;;;;;4961185;28;20026;-95
2024/02/18 14:24:24;;;;;;;44.88;24.77;;;;;;;;;;4976791;28;20034;-94
2024/02/18 14:26:50;;;;;;;47.33;27.20;;;;;;;;;;4989296;28;20034;-91
2024/02/18 14:29:17;;;;;;;47.38;26.58;;;;;;;;;;4963219;28;20070;-92
2024/02/18 14:31:42;;;;;;;44.70;26.17;;;;;;;;;;4957718;28;20122;-94
2024/02/18 14:34:08;;;;;;;54.00;24.15;;;;;;;;;;4983678;28;20050;-96
2024/02/18 14:36:33;;;;;;;47.10;23.30;;;;;;;;;;4977931;28;20545;-93
2024/02/18 14:38:58;;;;;;;45.35;25.08;;;;;;;;;;4976825;28;20030;-93
2024/02/18 14:41:24;;;;;;;51.45;27.55;;;;;;;;;;4959689;28;20031;-93
2024/02/18 14:43:50;;;;;;;50.55;26.75;;;;;;;;;;4975778;28;20022;-95
2024/02/18 14:46:15;;;;;;;56.38;29.35;;;;;;;;;;4959125;28;20500;-93
2024/02/18 14:48:41;;;;;;;50.25;27.52;;;;;;;;;;4975536;28;20031;-94
2024/02/18 14:51:08;;;;;;;65.28;33.72;;;;;;;;;;4978154;28;20462;-92
2024/02/18 14:53:34;;;;;;;56.67;31.13;;;;;;;;;;4987925;28;20027;-95
2024/02/18 14:55:59;;;;;;;59.78;30.83;;;;;;;;;;4981437;28;20026;-89
2024/02/18 14:58:26;;;;;;;54.72;27.70;;;;;;;;;;4979459;28;20046;-91
2024/02/18 15:00:51;;;;;;;58.22;28.35;;;;;;;;;;4993864;28;20030;-90
2024/02/18 15:03:17;;;;;;;51.47;28.33;;;;;;;;;;4980527;28;20432;-89
2024/02/18 15:05:45;;;;;;;57.78;28.10;;;;;;;;;;4995106;28;20037;-92
2024/02/18 15:08:10;;;;;;;43.10;24.70;;;;;;;;;;4976413;28;20481;-95
2024/02/18 15:10:36;;;;;;;61.15;33.60;;;;;;;;;;4976745;28;20041;-95
2024/02/18 15:13:01;;;;;;;59.97;32.88;;;;;;;;;;4990418;28;20033;-91
2024/02/18 15:15:27;;;;;;;53.35;29.00;;;;;;;;;;4994821;28;20026;-90
2024/02/18 15:17:52;;;;;;;59.67;32.42;;;;;;;;;;4993455;28;20466;-91
2024/02/18 15:20:18;;;;;;;52.10;28.15;;;;;;;;;;4993803;28;20042;-93
2024/02/18 15:22:43;;;;;;;;;;;;;;;;;;4964286;28;20053;-90
2024/02/18 15:25:09;;;;;;;;;;;;;;;;;;4964219;28;19918;-90
2024/02/18 15:27:34;;;;;;;;;;;;;;;;;;5003085;28;19974;-90
2024/02/18 15:29:59;;;;;;;;;;;;;;;;;;4993504;28;19977;-90
2024/02/18 15:32:25;;;;;;;;;;;;;;;;;;5010349;28;20284;-90
2024/02/18 15:34:50;;;;;;;;;;;;;;;;;;4993641;28;19918;-91
2024/02/18 15:37:15;;;;;;;;;;;;;;;;;;4985852;28;20017;-94
2024/02/18 15:39:41;;;;;;;;;;;;;;;;;;4999393;28;19918;-91
2024/02/18 15:42:06;;;;;;;;;;;;;;;;;;4993878;28;19918;-93
2024/02/18 15:44:32;;;;;;;;;;;;;;;;;;4993842;28;20507;-91
2024/02/18 15:46:59;;;;;;;;;;;;;;;;;;4993930;28;20423;-90
2024/02/18 15:49:25;;;;;;;;;;;;;;;;;;4993516;28;19922;-88
2024/02/18 15:51:51;;;;;;;;;;;;;;;;;;5011423;28;19941;-93
2024/02/18 15:54:16;;;;;;;;;;;;;;;;;;4984554;28;20369;-94
2024/02/18 15:56:41;;;;;;;;;;;;;;;;;;4995397;28;20316;-93
2024/02/18 18:25:22;;;;;;;;;;;;;;;;;;4944856;28;20009;-92
2024/02/18 18:27:48;;;;;;;;;;;;;;;;;;4978023;28;19929;-94
2024/02/18 18:30:13;;;;;;;;;;;;;;;;;;4977766;28;19918;-95
2024/02/18 18:32:39;;;;;;;;;;;;;;;;;;4976843;28;19925;-95
2024/02/18 18:35:07;;;;;;;;;;;;;;;;;;4974158;28;19930;-96
2024/02/18 18:37:33;;;;;;;;;;;;;;;;;;4957566;29;19918;-96
2024/02/18 18:39:59;;;;;;;;;;;;;;;;;;4958092;29;19965;-96
2024/02/18 18:42:24;;;;;;;;;;;;;;;;;;4961179;28;19918;-96
2024/02/18 18:44:49;;;;;;;;;;;;;;;;;;4955189;28;19980;-96
2024/02/18 18:47:16;;;;;;;;;;;;;;;;;;4981470;28;19918;-96
2024/02/18 18:49:43;;;;;;;;;;;;;;;;;;4981186;28;19985;-95
2024/02/18 18:52:10;;;;;;;;;;;;;;;;;;4981557;28;19918;-96
2024/02/18 18:54:37;;;;;;;;;;;;;;;;;;4999989;23;19933;-96
2024/02/18 18:57:04;;;;;;;;;;;;;;;;;;4979793;28;19926;-96
2024/02/18 19:00:05;;;;;;;;;;;;;;;;;;4991375;28;19962;-96
2024/02/18 19:02:33;;;;;;;;;;;;;;;;;;4962667;28;19957;-96
2024/02/18 19:04:58;;;;;;;;;;;;;;;;;;4986190;23;19941;-96
2024/02/18 19:07:27;;;;;;;;;;;;;;;;;;4981681;28;19926;-96
2024/02/18 19:10:01;;;;;;;;;;;;;;;;;;5004592;28;19928;-96
2024/02/18 19:12:26;;;;;;;;;;;;;;;;;;4987081;28;19929;-96
2024/02/18 19:14:51;;;;;;;;;;;;;;;;;;4984440;28;19940;-96
2024/02/18 19:17:18;;;;;;;;;;;;;;;;;;4991461;28;20021;-96
2024/02/18 19:19:45;;;;;;;;;;;;;;;;;;5012341;28;19901;-96
2024/02/18 19:22:15;;;;;;;;;;;;;;;;;;4992624;28;19906;-96
2024/02/18 19:24:43;;;;;;;52.00;31.73;;;;;;;;;;4990172;23;19930;-96
2024/02/18 19:27:08;;;;;;;58.72;31.35;;;;;;;;;;4945723;29;20130;-96
2024/02/18 19:29:34;;;;;;;57.50;32.95;;;;;;;;;;4958087;29;20063;-93
2024/02/18 19:31:59;;;;;;;64.68;36.28;;;;;;;;;;4939547;29;20024;-94
2024/02/18 19:34:24;;;;;;;69.55;40.63;;;;;;;;;;4939717;29;20505;-95
2024/02/18 19:36:50;;;;;;;68.88;37.92;;;;;;;;;;4940737;29;20117;-94
2024/02/18 19:39:16;;;;;;;56.35;33.75;;;;;;;;;;4940482;29;20055;-94
2024/02/18 19:41:43;;;;;;;64.05;34.80;;;;;;;;;;4939757;29;20023;-95
2024/02/18 19:44:09;;;;;;;56.83;34.42;;;;;;;;;;4939651;29;20031;-95
2024/02/18 19:46:44;;;;;;;58.75;33.45;;;;;;;;;;4956342;29;20074;-94
2024/02/18 19:49:10;;;;;;;60.78;35.22;;;;;;;;;;4939297;29;20035;-91
2024/02/18 19:51:36;;;;;;;60.80;36.28;;;;;;;;;;4939499;29;20085;-92
2024/02/18 19:54:01;;;;;;;63.47;35.53;;;;;;;;;;4939522;29;20118;-93
2024/02/18 19:56:27;;;;;;;65.10;36.15;;;;;;;;;;4940363;29;20390;-94
2024/02/18 19:58:53;;;;;;;65.60;35.50;;;;;;;;;;4938651;29;20466;-91
2024/02/18 20:01:18;;;;;;;63.22;37.30;;;;;;;;;;4938503;28;20035;-92
2024/02/18 20:03:45;;;;;;;62.88;37.70;;;;;;;;;;4939214;29;20037;-91
2024/02/18 20:06:10;;;;;;;62.90;35.03;;;;;;;;;;4939854;29;20027;-92
2024/02/18 20:08:37;;;;;;;63.50;36.63;;;;;;;;;;4940709;29;20490;-93
2024/02/18 20:11:03;;;;;;;60.85;36.85;;;;;;;;;;4938902;28;20028;-93
2024/02/18 20:13:30;;;;;;;61.05;33.10;;;;;;;;;;4939052;29;20541;-92
2024/02/18 20:15:57;;;;;;;59.50;34.10;;;;;;;;;;4955380;29;20115;-94
2024/02/18 20:18:22;;;;;;;59.63;34.53;;;;;;;;;;4954905;29;20109;-93
2024/02/18 20:20:49;;;;;;;62.97;35.30;;;;;;;;;;4955071;29;20473;-95
2024/02/18 20:23:15;;;;;;;65.10;37.78;;;;;;;;;;4954751;28;20036;-95
2024/02/18 20:25:42;;;;;;;83.57;47.63;;;;;;;;;;4951973;28;20417;-94
2024/02/18 20:28:07;;;;;;;80.07;45.47;;;;;;;;;;4958076;28;20027;-94
2024/02/18 20:30:34;;;;;;;66.88;39.30;;;;;;;;;;4958041;28;20026;-94
2024/02/18 20:32:59;;;;;;;61.75;36.35;;;;;;;;;;4958110;28;20037;-94
2024/02/18 20:35:25;;;;;;;63.85;38.00;;;;;;;;;;4959836;28;20393;-94
2024/02/18 20:37:53;;;;;;;63.17;36.25;;;;;;;;;;4960714;28;20030;-93
2024/02/18 20:40:20;;;;;;;68.63;37.78;;;;;;;;;;4947213;29;20030;-92
2024/02/18 20:42:50;;;;;;;65.88;36.25;;;;;;;;;;4927954;29;20121;-93
2024/02/18 20:45:16;;;;;;;;;;;;;;;;;;4945395;29;20027;-94
2024/02/18 20:47:41;;;;;;;66.38;35.58;;;;;;;;;;4942406;29;19961;-94
2024/02/18 20:50:07;;;;;;;63.22;34.78;;;;;;;;;;4941420;29;20051;-93
2024/02/18 20:52:33;;;;;;;68.50;37.03;;;;;;;;;;4940096;29;20028;-94
2024/02/18 20:54:59;;;;;;;64.28;36.97;;;;;;;;;;4939942;29;20035;-95
2024/02/18 20:57:25;;;;;;;66.45;38.15;;;;;;;;;;4939872;29;20023;-93
2024/02/18 20:59:52;;;;;;;66.07;36.88;;;;;;;;;;4957019;28;20034;-92
2024/02/18 21:02:18;;;;;;;70.88;40.35;;;;;;;;;;4975375;28;20034;-96
2024/02/18 21:04:44;;;;;;;64.65;38.17;;;;;;;;;;4971293;28;20031;-93
2024/02/18 21:07:13;;;;;;;74.45;43.33;;;;;;;;;;4976795;28;20027;-94
2024/02/18 21:09:38;;;;;;;;;;;;;;;;;;4978138;28;20039;-93
2024/02/18 21:12:05;;;;;;;;;;;;;;;;;;4963624;28;19920;-93
2024/02/18 21:14:31;;;;;;;72.70;42.50;;;;;;;;;;4978741;28;20021;-93
2024/02/18 21:16:56;;;;;;;66.68;39.72;;;;;;;;;;4979243;28;20489;-94
2024/02/18 21:19:22;;;;;;;75.05;43.92;;;;;;;;;;4978644;28;20035;-93
2024/02/18 21:21:48;;;;;;;75.18;44.17;;;;;;;;;;4978219;28;20130;-94
2024/02/18 21:24:13;;;;;;;80.13;45.90;;;;;;;;;;4978050;28;20034;-94
2024/02/18 21:26:39;;;;;;;70.53;42.70;;;;;;;;;;4977648;28;20055;-94
2024/02/18 21:29:04;;;;;;;67.78;41.58;;;;;;;;;;4977848;28;20031;-93
2024/02/18 21:31:33;;;;;;;;;;;;;;;;;;4977865;28;20109;-94
2024/02/18 21:33:59;;;;;;;;;;;;;;;;;;4977999;28;19917;-94
2024/02/18 21:36:24;;;;;;;;;;;;;;;;;;4961917;28;19913;-93
2024/02/18 21:38:50;;;;;;;;;;;;;;;;;;4977867;28;19914;-94
2024/02/18 21:41:15;;;;;;;;;;;;;;;;;;4978350;28;19936;-94
2024/02/18 21:43:41;;;;;;;;;;;;;;;;;;4961965;28;19917;-94
2024/02/18 21:46:11;;;;;;;;;;;;;;;;;;4962744;28;19910;-94
2024/02/18 21:48:36;;;;;;;;;;;;;;;;;;4978398;28;19957;-94
2024/02/18 21:51:01;;;;;;;;;;;;;;;;;;4978092;28;19957;-94
2024/02/18 21:53:27;;;;;;;;;;;;;;;;;;4962053;28;19918;-94
2024/02/18 21:55:52;;;;;;;;;;;;;;;;;;4980120;28;19914;-95
2024/02/18 21:58:17;;;;;;;;;;;;;;;;;;4961984;28;19976;-94
2024/02/18 22:00:43;;;;;;;;;;;;;;;;;;4961907;28;19914;-95
2024/02/18 22:03:08;;;;;;;;;;;;;;;;;;4961965;28;20305;-94
2024/02/18 22:05:33;;;;;;;;;;;;;;;;;;4978014;28;19914;-95
2024/02/18 22:07:59;;;;;;;;;;;;;;;;;;4962021;28;20017;-93
2024/02/18 22:10:24;;;;;;;;;;;;;;;;;;4978084;28;19964;-94
2024/02/18 22:12:51;;;;;;;;;;;;;;;;;;4961912;28;19921;-94
2024/02/18 22:15:18;;;;;;;;;;;;;;;;;;4978330;28;20042;-94
2024/02/18 22:17:43;;;;;;;;;;;;;;;;;;4961415;28;19961;-94
2024/02/18 22:20:09;;;;;;;;;;;;;;;;;;4962410;28;19914;-93
2024/02/18 22:22:34;;;;;;;;;;;;;;;;;;4960779;28;19914;-94
2024/02/18 22:25:00;;;;;;;;;;;;;;;;;;4977244;28;19922;-93
2024/02/18 22:27:25;;;;;;;;;;;;;;;;;;4961876;28;19920;-94
2024/02/18 22:29:50;;;;;;;;;;;;;;;;;;4961644;28;19914;-94
2024/02/18 22:32:15;;;;;;;;;;;;;;;;;;4978418;28;19914;-94
2024/02/18 22:34:41;;;;;;;;;;;;;;;;;;4961721;28;20372;-94
2024/02/18 22:37:09;;;;;;;;;;;;;;;;;;4961634;28;19984;-95
2024/02/18 22:39:34;;;;;;;80.60;43.90;;;;;;;;;;4975431;28;19918;-96
2024/02/18 22:42:00;;;;;;;;;;;;;;;;;;4962536;28;20404;-96
2024/02/18 22:44:25;;;;;;;;;;;;;;;;;;4960612;28;19918;-93
